Time;durP1;ratioP1;P1;durP2;ratioP2;P2;SDS_P1;SDS_P2;PMS_P1;PMS_P2;Temp;Humidity;BMP_temperature;BMP_pressure;BME280_temperature;BME280_humidity;BME280_pressure;Samples;Min_cycle;Max_cycle;Signal;HPM_P1;HPM_P2
2021/07/23 00:00:51;;;;;;;17.85;11.45;;;18.80;87.20;;;;;;3561061;40;20025;-65
2021/07/23 00:03:17;;;;;;;18.85;11.02;;;18.80;87.40;;;;;;3561560;40;20033;-65
2021/07/23 00:05:43;;;;;;;16.55;11.68;;;18.80;87.60;;;;;;3561210;40;20025;-65
2021/07/23 00:08:08;;;;;;;14.90;11.30;;;18.70;87.30;;;;;;3561712;40;20529;-63
2021/07/23 00:10:34;;;;;;;16.05;10.75;;;18.70;87.10;;;;;;3561094;40;20041;-65
2021/07/23 00:13:01;;;;;;;17.85;10.40;;;18.70;87.10;;;;;;3561320;40;20022;-65
2021/07/23 00:15:27;;;;;;;14.82;10.70;;;18.60;86.70;;;;;;3559586;40;20030;-65
2021/07/23 00:17:53;;;;;;;15.07;11.30;;;18.60;86.60;;;;;;3561850;40;20197;-64
2021/07/23 00:20:19;;;;;;;16.75;10.75;;;18.60;86.00;;;;;;3561627;40;20030;-65
2021/07/23 00:22:45;;;;;;;16.65;10.75;;;18.60;85.70;;;;;;3560743;40;20033;-65
2021/07/23 00:25:11;;;;;;;14.52;10.20;;;18.50;86.10;;;;;;3562021;40;20213;-65
2021/07/23 00:27:37;;;;;;;16.40;11.10;;;18.50;86.10;;;;;;3562045;40;20062;-65
2021/07/23 00:30:07;;;;;;;16.33;11.05;;;18.50;86.80;;;;;;3561326;40;20026;-65
2021/07/23 00:32:36;;;;;;;19.25;11.38;;;18.40;87.10;;;;;;3561922;40;20037;-65
2021/07/23 00:35:02;;;;;;;16.45;11.38;;;18.40;87.60;;;;;;3561920;40;20030;-64
2021/07/23 00:37:28;;;;;;;16.88;11.63;;;18.40;88.30;;;;;;3561361;40;20080;-65
2021/07/23 00:39:54;;;;;;;17.60;12.02;;;18.40;88.10;;;;;;3560917;40;20041;-65
2021/07/23 00:42:33;;;;;;;20.00;13.00;;;18.30;88.50;;;;;;3562719;40;20040;-63
2021/07/23 00:44:58;;;;;;;21.63;13.40;;;18.30;89.00;;;;;;3563650;40;20038;-65
2021/07/23 00:47:25;;;;;;;19.83;13.27;;;18.30;89.00;;;;;;3560355;40;20073;-64
2021/07/23 00:49:52;;;;;;;20.10;13.63;;;18.30;89.40;;;;;;3551556;40;20426;-62
2021/07/23 00:52:18;;;;;;;19.67;12.80;;;18.30;89.30;;;;;;3560114;40;20135;-62
2021/07/23 00:54:44;;;;;;;20.45;13.40;;;18.30;89.30;;;;;;3561006;40;20609;-62
2021/07/23 00:57:10;;;;;;;17.83;11.90;;;18.30;89.20;;;;;;3559836;40;20029;-63
2021/07/23 00:59:36;;;;;;;17.73;12.40;;;18.30;89.30;;;;;;3561048;40;20045;-62
2021/07/23 01:02:02;;;;;;;19.70;12.50;;;18.30;89.30;;;;;;3561261;40;20017;-62
2021/07/23 01:04:28;;;;;;;19.75;12.02;;;18.30;89.10;;;;;;3560785;40;20026;-63
2021/07/23 01:06:56;;;;;;;14.88;11.52;;;18.30;88.60;;;;;;3559703;40;20034;-62
2021/07/23 01:09:22;;;;;;;17.15;12.38;;;18.30;88.40;;;;;;3562642;40;20043;-61
2021/07/23 01:11:48;;;;;;;17.02;12.38;;;18.20;88.40;;;;;;3560650;40;20127;-62
2021/07/23 01:14:17;;;;;;;18.38;11.38;;;18.20;88.60;;;;;;3559784;40;20037;-62
2021/07/23 01:16:44;;;;;;;17.52;11.73;;;18.20;88.20;;;;;;3559538;40;20029;-62
2021/07/23 01:19:11;;;;;;;18.60;11.73;;;18.20;88.00;;;;;;3560682;40;20801;-62
2021/07/23 01:21:42;;;;;;;16.42;11.10;;;18.10;87.90;;;;;;3558622;40;20053;-63
2021/07/23 01:24:12;;;;;;;16.52;11.15;;;18.00;88.30;;;;;;3559559;40;20541;-63
2021/07/23 01:26:50;;;;;;;16.58;11.73;;;17.90;88.70;;;;;;3561254;40;20280;-63
2021/07/23 01:29:36;;;;;;;19.65;12.40;;;17.90;89.20;;;;;;3559795;40;20073;-62
2021/07/23 01:32:02;;;;;;;18.67;13.00;;;17.90;89.80;;;;;;3561157;40;20040;-64
2021/07/23 01:34:28;;;;;;;18.60;12.35;;;17.90;90.00;;;;;;3559847;40;20045;-63
2021/07/23 01:36:53;;;;;;;17.17;12.77;;;18.00;90.10;;;;;;3560387;40;20064;-62
2021/07/23 01:39:20;;;;;;;18.95;12.80;;;17.90;90.10;;;;;;3560102;40;20042;-62
2021/07/23 01:41:48;;;;;;;17.52;13.00;;;17.90;90.10;;;;;;3559648;40;20073;-63
2021/07/23 01:44:13;;;;;;;22.15;13.73;;;17.90;90.20;;;;;;3559854;40;20048;-62
2021/07/23 01:46:39;;;;;;;18.08;13.00;;;17.90;90.10;;;;;;3555612;40;20087;-63
2021/07/23 01:49:11;;;;;;;20.30;13.48;;;17.90;90.10;;;;;;3560117;40;20077;-62
2021/07/23 01:51:38;;;;;;;18.42;13.23;;;17.90;90.10;;;;;;3561182;40;20127;-62
2021/07/23 01:54:15;;;;;;;17.42;11.80;;;17.90;90.30;;;;;;3561097;40;20500;-62
2021/07/23 01:56:45;;;;;;;16.63;10.93;;;17.90;90.00;;;;;;3560105;40;20061;-62
2021/07/23 01:59:14;;;;;;;18.23;12.13;;;17.90;89.60;;;;;;3560909;40;20116;-62
2021/07/23 02:01:41;;;;;;;15.85;11.30;;;17.90;89.30;;;;;;3561356;40;20739;-62
2021/07/23 02:04:19;;;;;;;18.25;12.98;;;17.80;89.60;;;;;;3559800;40;20029;-63
2021/07/23 02:06:45;;;;;;;17.10;12.10;;;17.80;90.00;;;;;;3560009;40;20399;-61
2021/07/23 02:09:11;;;;;;;20.40;13.73;;;17.80;90.10;;;;;;3561889;40;20045;-62
2021/07/23 02:11:45;;;;;;;23.85;13.68;;;17.80;90.30;;;;;;3559811;40;20131;-62
2021/07/23 02:14:12;;;;;;;17.67;12.40;;;17.70;90.40;;;;;;3559430;40;20040;-62
2021/07/23 02:16:40;;;;;;;18.10;10.75;;;17.70;90.20;;;;;;3559877;40;20142;-62
2021/07/23 02:19:06;;;;;;;13.65;10.25;;;17.70;89.60;;;;;;3560566;40;20072;-61
2021/07/23 02:21:52;;;;;;;16.70;11.93;;;17.70;89.30;;;;;;3559787;40;20061;-62
2021/07/23 02:24:19;;;;;;;21.05;13.20;;;17.70;89.40;;;;;;3561791;40;20045;-62
2021/07/23 02:26:45;;;;;;;19.13;12.55;;;17.60;89.90;;;;;;3561492;40;20108;-62
2021/07/23 02:29:11;;;;;;;18.92;12.15;;;17.60;90.00;;;;;;3560540;40;20049;-62
2021/07/23 02:31:43;;;;;;;17.75;13.45;;;17.70;90.20;;;;;;3560503;40;20049;-61
2021/07/23 02:34:17;;;;;;;19.10;12.98;;;17.60;90.20;;;;;;3559991;40;20037;-62
2021/07/23 02:36:43;;;;;;;19.58;13.90;;;17.60;90.30;;;;;;3560050;40;20036;-61
2021/07/23 02:39:12;;;;;;;22.10;13.75;;;17.60;90.30;;;;;;3560371;40;20097;-62
2021/07/23 02:41:45;;;;;;;15.63;10.50;;;17.60;90.60;;;;;;3559481;40;20034;-62
2021/07/23 02:44:12;;;;;;;15.10;10.70;;;17.50;89.50;;;;;;3552202;40;20037;-62
2021/07/23 02:46:37;;;;;;;14.20;11.02;;;17.50;89.60;;;;;;3558771;40;20041;-62
2021/07/23 02:49:05;;;;;;;15.60;11.35;;;17.50;89.70;;;;;;3560067;40;20030;-61
2021/07/23 02:51:31;;;;;;;11.95;8.77;;;17.40;89.80;;;;;;3559331;40;20048;-61
2021/07/23 02:53:59;;;;;;;14.32;9.38;;;17.40;88.80;;;;;;3559723;40;20053;-62
2021/07/23 02:56:26;;;;;;;11.07;8.88;;;17.30;88.30;;;;;;3560880;40;20049;-61
2021/07/23 02:58:52;;;;;;;12.43;8.98;;;17.30;87.50;;;;;;3558229;40;20426;-62
2021/07/23 03:01:20;;;;;;;13.25;9.15;;;17.20;87.00;;;;;;3555679;40;20041;-61
2021/07/23 03:03:46;;;;;;;14.10;10.13;;;17.20;87.50;;;;;;3559415;40;20065;-62
2021/07/23 03:06:12;;;;;;;13.77;10.00;;;17.20;88.10;;;;;;3560808;40;20029;-62
2021/07/23 03:08:37;;;;;;;16.02;9.77;;;17.20;88.60;;;;;;3560728;40;20034;-62
2021/07/23 03:11:04;;;;;;;14.18;9.75;;;17.10;88.60;;;;;;3560851;40;20048;-62
2021/07/23 03:13:37;;;;;;;14.27;9.77;;;17.10;88.60;;;;;;3560589;40;20034;-62
2021/07/23 03:16:14;;;;;;;15.10;10.52;;;17.10;88.60;;;;;;3559746;40;20041;-61
2021/07/23 03:18:42;;;;;;;19.27;12.63;;;17.10;89.10;;;;;;3560749;40;20173;-62
2021/07/23 03:21:10;;;;;;;13.63;9.73;;;17.00;89.40;;;;;;3559313;40;20053;-62
2021/07/23 03:23:37;;;;;;;15.23;10.02;;;17.00;89.40;;;;;;3561008;40;20034;-61
2021/07/23 03:26:06;;;;;;;13.38;9.93;;;17.00;89.20;;;;;;3559520;40;20040;-62
2021/07/23 03:28:38;;;;;;;16.20;11.63;;;17.00;89.00;;;;;;3560819;40;20045;-62
2021/07/23 03:31:30;;;;;;;14.38;9.50;;;17.00;89.40;;;;;;3558694;40;20038;-62
2021/07/23 03:34:04;;;;;;;16.40;9.30;;;16.90;89.20;;;;;;3559484;40;20038;-61
2021/07/23 03:36:50;;;;;;;15.38;9.88;;;16.90;89.20;;;;;;3548398;40;20497;-62
2021/07/23 03:39:22;;;;;;;13.80;9.18;;;16.90;89.20;;;;;;3559455;40;20044;-61
2021/07/23 03:41:48;;;;;;;12.80;8.48;;;16.90;88.40;;;;;;3558484;40;20810;-61
2021/07/23 03:44:18;;;;;;;12.27;8.75;;;16.90;87.90;;;;;;3558911;40;20053;-62
2021/07/23 03:46:46;;;;;;;11.43;8.38;;;17.00;87.50;;;;;;3558170;40;20049;-61
2021/07/23 03:49:12;;;;;;;13.50;8.68;;;17.10;87.30;;;;;;3557404;40;20783;-62
2021/07/23 03:51:43;;;;;;;14.10;8.98;;;17.10;87.60;;;;;;3558471;40;20053;-62
2021/07/23 03:54:10;;;;;;;16.52;9.77;;;17.10;87.90;;;;;;3555024;40;20046;-62
2021/07/23 03:56:37;;;;;;;16.42;10.15;;;17.20;88.40;;;;;;3559754;40;20052;-63
2021/07/23 03:59:04;;;;;;;15.10;10.38;;;17.20;88.60;;;;;;3559078;40;20041;-62
2021/07/23 04:01:46;;;;;;;14.07;9.85;;;17.30;88.60;;;;;;3558675;40;20298;-61
2021/07/23 04:04:15;;;;;;;15.57;10.52;;;17.30;88.20;;;;;;3556918;40;20048;-64
2021/07/23 04:06:41;;;;;;;16.05;11.65;;;17.30;88.20;;;;;;3559670;40;20025;-64
2021/07/23 04:09:08;;;;;;;14.00;9.88;;;17.30;88.60;;;;;;3559884;40;20037;-64
2021/07/23 04:11:38;;;;;;;15.60;10.80;;;17.30;89.00;;;;;;3557996;40;20053;-64
2021/07/23 04:14:09;;;;;;;18.60;10.30;;;17.30;89.20;;;;;;3558623;40;20033;-64
2021/07/23 04:16:38;;;;;;;13.45;9.80;;;17.30;89.40;;;;;;3559306;40;20029;-63
2021/07/23 04:19:03;;;;;;;13.77;10.30;;;17.40;89.30;;;;;;3557763;40;20022;-64
2021/07/23 04:21:35;;;;;;;16.10;10.77;;;17.40;89.30;;;;;;3558045;40;20131;-66
2021/07/23 04:24:10;;;;;;;13.27;9.93;;;17.50;89.90;;;;;;3550488;40;20599;-64
2021/07/23 04:26:38;;;;;;;13.90;10.70;;;17.60;89.20;;;;;;3561216;40;20037;-64
2021/07/23 04:29:05;;;;;;;14.98;10.35;;;17.60;89.30;;;;;;3559434;40;20134;-64
2021/07/23 04:31:31;;;;;;;19.02;10.32;;;17.70;89.60;;;;;;3559597;40;20118;-63
2021/07/23 04:34:02;;;;;;;14.43;10.23;;;17.80;89.90;;;;;;3559549;40;20130;-64
2021/07/23 04:36:33;;;;;;;15.30;10.48;;;17.90;89.40;;;;;;3560820;40;20138;-64
2021/07/23 04:39:04;;;;;;;16.83;10.45;;;18.00;89.20;;;;;;3566643;40;20053;-64
2021/07/23 04:41:30;;;;;;;17.55;11.75;;;18.10;88.80;;;;;;3559093;40;20045;-64
2021/07/23 04:43:58;;;;;;;14.85;10.50;;;18.10;88.40;;;;;;3561631;40;20070;-64
2021/07/23 04:46:25;;;;;;;15.02;10.48;;;18.20;88.30;;;;;;3560681;40;20394;-64
2021/07/23 04:48:51;;;;;;;14.15;11.00;;;18.30;88.50;;;;;;3560171;40;20625;-64
2021/07/23 04:51:39;;;;;;;16.67;12.13;;;18.40;88.70;;;;;;3565797;40;20048;-65
2021/07/23 04:54:23;;;;;;;15.88;11.20;;;18.40;88.50;;;;;;3563428;40;20111;-64
2021/07/23 04:57:12;;;;;;;14.43;11.43;;;18.50;88.50;;;;;;3560965;40;20036;-64
2021/07/23 04:59:38;;;;;;;17.00;12.02;;;18.60;88.20;;;;;;3561255;40;20045;-64
2021/07/23 05:02:04;;;;;;;18.17;12.90;;;18.60;88.00;;;;;;3560398;40;20033;-64
2021/07/23 05:04:31;;;;;;;15.35;11.52;;;18.70;87.50;;;;;;3559667;40;20034;-64
2021/07/23 05:06:57;;;;;;;15.23;12.20;;;18.70;87.30;;;;;;3560063;40;20034;-64
2021/07/23 05:09:25;;;;;;;19.58;12.50;;;18.80;87.20;;;;;;3560015;40;20111;-64
2021/07/23 05:11:51;;;;;;;17.80;12.40;;;18.80;86.80;;;;;;3559271;40;20049;-64
2021/07/23 05:14:17;;;;;;;17.52;11.95;;;18.80;86.30;;;;;;3561210;40;20010;-64
2021/07/23 05:16:43;;;;;;;19.05;12.60;;;18.90;86.20;;;;;;3561234;40;20614;-65
2021/07/23 05:19:12;;;;;;;18.17;11.70;;;18.90;85.80;;;;;;3564756;40;20021;-65
2021/07/23 05:21:38;;;;;;;18.73;12.18;;;18.90;85.90;;;;;;3559905;40;20044;-67
2021/07/23 05:24:05;;;;;;;16.00;10.50;;;19.00;86.00;;;;;;3561647;40;20045;-64
2021/07/23 05:26:38;;;;;;;18.73;11.95;;;19.00;85.90;;;;;;3560822;40;20139;-65
2021/07/23 05:29:04;;;;;;;17.95;11.57;;;19.20;85.70;;;;;;3561780;40;20089;-64
2021/07/23 05:31:30;;;;;;;16.67;11.77;;;19.40;85.20;;;;;;3561688;40;20372;-65
2021/07/23 05:34:01;;;;;;;18.20;12.57;;;19.50;84.10;;;;;;3560887;40;20036;-64
2021/07/23 05:36:27;;;;;;;16.88;11.63;;;19.50;83.70;;;;;;3560514;40;20119;-64
2021/07/23 05:38:53;;;;;;;16.30;12.10;;;19.60;83.30;;;;;;3561087;40;20045;-64
2021/07/23 05:41:19;;;;;;;17.25;11.90;;;19.60;83.30;;;;;;3561184;40;20029;-64
2021/07/23 05:43:45;;;;;;;17.60;12.68;;;19.60;83.40;;;;;;3561108;40;20026;-64
2021/07/23 05:46:11;;;;;;;20.02;12.45;;;19.70;83.20;;;;;;3561495;40;20049;-64
2021/07/23 05:48:40;;;;;;;18.00;12.15;;;19.70;83.20;;;;;;3558503;40;20030;-64
2021/07/23 05:51:08;;;;;;;17.42;12.18;;;19.60;83.40;;;;;;3560820;40;20038;-65
2021/07/23 05:53:35;;;;;;;18.00;12.82;;;19.60;83.50;;;;;;3559726;40;20126;-65
2021/07/23 05:56:01;;;;;;;18.88;12.20;;;19.70;83.20;;;;;;3560664;40;20029;-64
2021/07/23 05:58:29;;;;;;;19.92;13.30;;;19.70;83.00;;;;;;3561028;40;20084;-65
2021/07/23 06:00:56;;;;;;;16.02;11.90;;;19.70;83.10;;;;;;3560811;40;20029;-64
2021/07/23 06:03:22;;;;;;;18.30;12.45;;;19.70;82.50;;;;;;3560757;40;20033;-65
2021/07/23 06:05:48;;;;;;;20.23;13.23;;;19.80;82.40;;;;;;3559552;40;20033;-64
2021/07/23 06:08:14;;;;;;;15.90;11.48;;;19.90;81.90;;;;;;3560730;40;20055;-64
2021/07/23 06:10:40;;;;;;;19.15;12.95;;;20.00;81.90;;;;;;3560623;40;20079;-65
2021/07/23 06:13:06;;;;;;;14.23;11.57;;;20.10;81.40;;;;;;3560854;40;20014;-64
2021/07/23 06:15:31;;;;;;;19.70;12.85;;;20.20;81.20;;;;;;3560394;40;20037;-65
2021/07/23 06:17:58;;;;;;;17.25;12.63;;;20.30;80.80;;;;;;3558804;40;20062;-65
2021/07/23 06:20:23;;;;;;;17.80;11.88;;;20.30;80.50;;;;;;3560703;40;20025;-65
2021/07/23 06:22:54;;;;;;;14.73;12.32;;;20.40;80.60;;;;;;3559629;40;20037;-64
2021/07/23 06:25:20;;;;;;;16.20;11.98;;;20.40;80.00;;;;;;3560251;40;20033;-64
2021/07/23 06:27:47;;;;;;;21.77;13.00;;;20.50;79.70;;;;;;3560749;40;20034;-64
2021/07/23 06:30:13;;;;;;;16.75;12.18;;;20.50;80.20;;;;;;3558422;40;20053;-64
2021/07/23 06:32:39;;;;;;;15.00;11.50;;;20.60;79.50;;;;;;3559174;40;20073;-64
2021/07/23 06:35:06;;;;;;;20.45;12.05;;;20.60;79.70;;;;;;3560779;40;20301;-64
2021/07/23 06:37:31;;;;;;;16.08;12.50;;;20.70;79.50;;;;;;3560575;40;20119;-65
2021/07/23 06:39:57;;;;;;;18.27;12.23;;;20.80;79.50;;;;;;3560329;40;20435;-64
2021/07/23 06:42:24;;;;;;;15.70;11.75;;;20.90;79.10;;;;;;3560544;40;20018;-64
2021/07/23 06:44:53;;;;;;;14.45;11.98;;;20.90;78.60;;;;;;3560449;40;20380;-63
2021/07/23 06:47:19;;;;;;;17.30;12.43;;;21.00;78.60;;;;;;3559549;40;20521;-65
2021/07/23 06:49:45;;;;;;;17.83;12.18;;;21.10;76.70;;;;;;3560208;40;20109;-64
2021/07/23 06:52:11;;;;;;;19.67;11.38;;;21.20;76.80;;;;;;3560105;40;20077;-65
2021/07/23 06:54:37;;;;;;;18.50;11.10;;;21.30;76.30;;;;;;3560207;40;20595;-66
2021/07/23 06:57:04;;;;;;;16.55;11.60;;;21.40;76.20;;;;;;3560529;40;20047;-64
2021/07/23 06:59:33;;;;;;;15.82;10.48;;;21.70;76.00;;;;;;3559741;40;20020;-64
2021/07/23 07:02:00;;;;;;;16.70;11.82;;;21.80;75.60;;;;;;3558860;40;20065;-63
2021/07/23 07:04:26;;;;;;;14.60;12.27;;;21.80;74.70;;;;;;3559955;40;20747;-64
2021/07/23 07:06:54;;;;;;;14.85;11.70;;;21.90;75.00;;;;;;3560054;40;20215;-64
2021/07/23 07:09:24;;;;;;;18.88;11.23;;;21.90;75.00;;;;;;3559243;40;20049;-64
2021/07/23 07:11:50;;;;;;;16.75;11.77;;;22.00;74.90;;;;;;3559465;40;20053;-64
2021/07/23 07:14:16;;;;;;;15.70;12.07;;;22.00;74.10;;;;;;3559865;40;20574;-65
2021/07/23 07:16:42;;;;;;;18.75;12.32;;;22.00;74.40;;;;;;3559474;40;20075;-67
2021/07/23 07:19:08;;;;;;;17.35;12.80;;;22.00;75.20;;;;;;3558735;40;20063;-66
2021/07/23 07:21:35;;;;;;;17.52;12.55;;;22.20;73.40;;;;;;3559425;40;20123;-66
2021/07/23 07:24:01;;;;;;;16.65;12.55;;;22.30;73.90;;;;;;3559785;40;20053;-65
2021/07/23 07:26:27;;;;;;;13.40;10.82;;;22.50;72.60;;;;;;3560307;40;20484;-65
2021/07/23 07:28:53;;;;;;;12.82;11.20;;;22.60;71.40;;;;;;3559535;40;20029;-65
2021/07/23 07:31:19;;;;;;;13.15;10.18;;;22.60;72.20;;;;;;3559276;40;20437;-65
2021/07/23 07:33:45;;;;;;;12.27;9.98;;;22.80;70.70;;;;;;3559692;40;20118;-66
2021/07/23 07:36:17;;;;;;;13.15;10.27;;;23.00;70.40;;;;;;3559622;40;20029;-65
2021/07/23 07:38:43;;;;;;;14.07;10.68;;;23.10;68.50;;;;;;3561590;40;20036;-65
2021/07/23 07:41:09;;;;;;;15.18;10.35;;;23.10;69.30;;;;;;3559414;40;20052;-66
2021/07/23 07:43:35;;;;;;;13.90;9.93;;;23.20;68.40;;;;;;3561296;40;20026;-65
2021/07/23 07:46:00;;;;;;;12.27;9.60;;;23.20;68.50;;;;;;3559807;40;20070;-65
2021/07/23 07:48:26;;;;;;;13.35;9.27;;;23.30;68.70;;;;;;3559676;40;20021;-66
2021/07/23 07:50:52;;;;;;;14.43;9.93;;;23.30;68.30;;;;;;3557639;40;20028;-66
2021/07/23 07:53:18;;;;;;;12.68;9.38;;;23.20;68.60;;;;;;3558997;40;20029;-66
2021/07/23 07:55:43;;;;;;;19.20;12.88;;;23.30;67.60;;;;;;3559477;40;20129;-66
2021/07/23 07:58:09;;;;;;;14.52;9.85;;;23.30;68.10;;;;;;3559121;40;20033;-66
2021/07/23 08:00:35;;;;;;;13.50;9.70;;;23.40;67.20;;;;;;3560909;40;20072;-66
2021/07/23 08:03:00;;;;;;;12.52;10.55;;;23.40;67.00;;;;;;3561027;40;20127;-66
2021/07/23 08:05:26;;;;;;;15.10;10.70;;;23.50;67.30;;;;;;3561038;40;20065;-66
2021/07/23 08:07:57;;;;;;;15.93;11.18;;;23.50;66.80;;;;;;3561207;40;20072;-65
2021/07/23 08:10:25;;;;;;;17.10;11.15;;;23.70;65.00;;;;;;3560587;40;20041;-67
2021/07/23 08:12:51;;;;;;;19.85;12.68;;;23.80;64.10;;;;;;3559961;40;20053;-66
2021/07/23 08:15:17;;;;;;;15.07;11.20;;;23.90;64.90;;;;;;3560734;40;20042;-67
2021/07/23 08:17:43;;;;;;;9.50;8.05;;;23.90;64.80;;;;;;3559044;40;20612;-66
2021/07/23 08:20:10;;;;;;;10.88;8.50;;;23.90;63.80;;;;;;3560926;40;20032;-71
2021/07/23 08:22:36;;;;;;;13.52;8.55;;;23.90;63.80;;;;;;3559479;40;20034;-65
2021/07/23 08:25:02;;;;;;;10.88;7.60;;;24.00;62.50;;;;;;3560905;40;20113;-66
2021/07/23 08:27:28;;;;;;;9.80;7.15;;;24.10;61.80;;;;;;3561096;40;20713;-66
2021/07/23 08:29:54;;;;;;;11.55;7.70;;;24.20;61.80;;;;;;3560501;40;20033;-66
2021/07/23 08:32:20;;;;;;;10.93;7.32;;;24.40;62.00;;;;;;3561355;40;20096;-66
2021/07/23 08:34:46;;;;;;;7.95;7.03;;;24.50;60.80;;;;;;3560154;40;20419;-65
2021/07/23 08:37:11;;;;;;;14.75;7.05;;;24.50;62.30;;;;;;3560662;40;20143;-66
2021/07/23 08:39:37;;;;;;;7.78;6.55;;;24.50;60.50;;;;;;3551172;40;20022;-66
2021/07/23 08:42:25;;;;;;;8.15;6.68;;;24.40;61.60;;;;;;3560479;40;20065;-66
2021/07/23 08:44:51;;;;;;;8.80;6.47;;;24.40;61.50;;;;;;3559992;40;20790;-66
2021/07/23 08:47:18;;;;;;;7.18;6.15;;;24.40;63.40;;;;;;3560394;40;20156;-66
2021/07/23 08:49:44;;;;;;;10.93;6.22;;;24.40;62.50;;;;;;3561142;40;20056;-66
2021/07/23 08:52:10;;;;;;;9.70;6.20;;;24.50;61.30;;;;;;3560315;40;20029;-65
2021/07/23 08:54:35;;;;;;;7.53;5.90;;;24.50;61.10;;;;;;3559360;40;20088;-66
2021/07/23 08:57:01;;;;;;;6.68;5.18;;;24.40;59.90;;;;;;3561380;40;20042;-66
2021/07/23 08:59:27;;;;;;;10.02;6.22;;;24.40;59.70;;;;;;3560939;40;20045;-66
2021/07/23 09:01:59;;;;;;;10.68;6.03;;;24.40;59.80;;;;;;3561008;40;20073;-66
2021/07/23 09:04:28;;;;;;;7.65;5.25;;;24.40;59.90;;;;;;3558851;40;20184;-66
2021/07/23 09:07:12;;;;;;;9.40;5.85;;;24.40;62.20;;;;;;3561435;40;20815;-66
2021/07/23 09:09:39;;;;;;;7.18;5.97;;;24.40;62.20;;;;;;3559236;40;20045;-66
2021/07/23 09:12:05;;;;;;;9.90;6.97;;;24.50;60.90;;;;;;3561269;40;20144;-66
2021/07/23 09:14:31;;;;;;;9.82;7.20;;;24.60;58.30;;;;;;3561370;40;20031;-66
2021/07/23 09:16:57;;;;;;;8.55;6.55;;;24.60;58.60;;;;;;3560023;40;20888;-66
2021/07/23 09:19:22;;;;;;;8.02;5.30;;;24.60;59.00;;;;;;3561942;40;20078;-66
2021/07/23 09:21:56;;;;;;;6.38;5.60;;;24.60;57.50;;;;;;3561552;40;20767;-66
2021/07/23 09:24:23;;;;;;;11.23;5.43;;;24.60;58.80;;;;;;3561854;40;20040;-66
2021/07/23 09:26:49;;;;;;;9.88;6.68;;;24.70;58.50;;;;;;3561384;40;20468;-66
2021/07/23 09:29:15;;;;;;;9.45;6.95;;;24.70;58.40;;;;;;3559313;40;20037;-66
2021/07/23 09:32:10;;;;;;;9.13;6.72;;;24.70;58.70;;;;;;3559693;40;20050;-66
2021/07/23 09:34:36;;;;;;;12.30;5.65;;;24.70;58.50;;;;;;3556150;40;20422;-68
2021/07/23 09:37:12;;;;;;;9.60;5.72;;;24.70;58.40;;;;;;3561105;40;20025;-66
2021/07/23 09:39:38;;;;;;;9.00;5.57;;;24.60;59.40;;;;;;3561081;40;20174;-66
2021/07/23 09:42:04;;;;;;;9.35;5.40;;;24.70;59.80;;;;;;3560764;40;20049;-67
2021/07/23 09:44:30;;;;;;;8.00;5.47;;;24.70;59.60;;;;;;3561238;40;20509;-65
2021/07/23 09:46:55;;;;;;;12.60;5.10;;;24.80;59.60;;;;;;3561057;40;20435;-67
2021/07/23 09:49:25;;;;;;;8.70;5.93;;;24.80;59.50;;;;;;3561690;40;20577;-72
2021/07/23 09:51:52;;;;;;;7.05;5.18;;;24.90;58.10;;;;;;3560469;40;20065;-66
2021/07/23 09:54:19;;;;;;;8.48;5.50;;;24.80;58.80;;;;;;3559619;40;20668;-67
2021/07/23 09:56:49;;;;;;;8.98;5.95;;;24.80;58.00;;;;;;3561163;40;20030;-66
2021/07/23 09:59:28;;;;;;;7.65;5.20;;;24.90;58.40;;;;;;3559597;40;20435;-66
2021/07/23 10:02:02;;;;;;;9.38;5.40;;;24.80;57.10;;;;;;3561591;40;20701;-65
2021/07/23 10:04:41;;;;;;;10.38;5.55;;;24.90;56.00;;;;;;3561339;40;20025;-66
2021/07/23 10:07:16;;;;;;;9.73;6.30;;;24.90;55.10;;;;;;3561427;40;20041;-66
2021/07/23 10:09:43;;;;;;;10.60;5.85;;;24.80;56.40;;;;;;3560047;40;20032;-66
2021/07/23 10:12:12;;;;;;;9.23;6.10;;;24.80;57.50;;;;;;3561298;40;20041;-66
2021/07/23 10:14:40;;;;;;;9.95;5.85;;;24.80;57.50;;;;;;3561295;40;20041;-66
2021/07/23 10:17:08;;;;;;;10.52;6.63;;;24.80;57.00;;;;;;3560806;40;20407;-65
2021/07/23 10:19:35;;;;;;;13.68;8.30;;;24.90;56.70;;;;;;3561380;40;20067;-67
2021/07/23 10:22:02;;;;;;;12.65;6.57;;;24.80;57.10;;;;;;3558831;40;20036;-66
2021/07/23 10:24:31;;;;;;;11.27;6.93;;;24.90;56.90;;;;;;3561321;40;20037;-67
2021/07/23 10:27:17;;;;;;;9.10;6.80;;;24.90;57.80;;;;;;3559921;40;20312;-66
2021/07/23 10:29:49;;;;;;;8.70;5.22;;;24.80;56.10;;;;;;3560001;40;20123;-66
2021/07/23 10:32:24;;;;;;;9.48;5.30;;;24.80;58.60;;;;;;3559589;40;20064;-65
2021/07/23 10:34:51;;;;;;;9.98;6.47;;;24.70;55.70;;;;;;3560967;40;20411;-67
2021/07/23 10:37:29;;;;;;;6.07;5.22;;;24.60;58.20;;;;;;3561286;40;20099;-67
2021/07/23 10:40:11;;;;;;;9.95;5.78;;;24.60;57.80;;;;;;3558170;40;20034;-66
2021/07/23 10:42:38;;;;;;;12.07;5.70;;;24.70;58.40;;;;;;3560969;40;20326;-67
2021/07/23 10:45:05;;;;;;;6.95;5.30;;;24.90;57.20;;;;;;3560979;40;20029;-66
2021/07/23 10:47:36;;;;;;;8.02;4.93;;;25.00;57.60;;;;;;3560743;40;20035;-67
2021/07/23 10:50:03;;;;;;;8.77;5.50;;;25.00;57.30;;;;;;3560157;40;20280;-67
2021/07/23 10:52:35;;;;;;;9.88;5.72;;;25.10;57.60;;;;;;3560580;40;20073;-67
2021/07/23 10:55:25;;;;;;;10.73;6.45;;;25.10;56.70;;;;;;3559819;40;20026;-67
2021/07/23 10:58:09;;;;;;;10.90;6.72;;;25.20;56.60;;;;;;3555175;40;20083;-68
2021/07/23 11:00:53;;;;;;;8.77;6.13;;;25.30;56.30;;;;;;3560273;40;20040;-68
2021/07/23 11:03:37;;;;;;;13.07;6.78;;;25.40;54.90;;;;;;3561118;40;20040;-68
2021/07/23 11:06:23;;;;;;;9.63;6.07;;;25.60;56.00;;;;;;3559848;40;20033;-68
2021/07/23 11:08:49;;;;;;;;;;;25.80;53.90;;;;;;3560180;40;20034;-70
2021/07/23 11:11:15;;;;;;;10.70;6.30;;;25.80;54.10;;;;;;3559763;40;20014;-67
2021/07/23 11:13:42;;;;;;;9.63;6.28;;;25.80;54.40;;;;;;3558242;40;20029;-66
2021/07/23 11:16:19;;;;;;;11.13;5.97;;;25.70;55.30;;;;;;3560360;40;20126;-67
2021/07/23 11:18:59;;;;;;;6.50;5.45;;;25.60;55.00;;;;;;3560816;40;20045;-68
2021/07/23 11:21:35;;;;;;;6.90;5.53;;;25.60;55.60;;;;;;3559447;40;20047;-71
2021/07/23 11:24:11;;;;;;;11.43;6.15;;;25.50;56.50;;;;;;3560130;40;20036;-68
2021/07/23 11:26:39;;;;;;;8.45;5.40;;;25.50;56.60;;;;;;3560282;40;20040;-67
2021/07/23 11:29:05;;;;;;;9.27;5.40;;;25.60;55.70;;;;;;3559356;40;20049;-67
2021/07/23 11:31:33;;;;;;;7.60;5.95;;;25.60;55.90;;;;;;3560294;40;20095;-66
2021/07/23 11:34:26;;;;;;;10.02;6.47;;;25.50;55.60;;;;;;3559838;40;20056;-67
2021/07/23 11:36:53;;;;;;;12.80;8.45;;;25.40;57.10;;;;;;3561955;40;20111;-67
2021/07/23 11:39:24;;;;;;;15.15;9.52;;;25.30;58.10;;;;;;3562105;40;20045;-66
2021/07/23 11:42:05;;;;;;;11.38;7.50;;;25.20;57.00;;;;;;3560195;40;20064;-67
2021/07/23 11:44:32;;;;;;;8.00;5.80;;;25.20;56.90;;;;;;3560584;40;20426;-67
2021/07/23 11:46:58;;;;;;;8.63;5.88;;;25.20;55.60;;;;;;3561979;40;20139;-67
2021/07/23 11:49:31;;;;;;;12.50;7.45;;;25.10;56.90;;;;;;3562129;40;20038;-66
2021/07/23 11:51:57;;;;;;;10.57;6.35;;;25.00;58.50;;;;;;3561795;40;20049;-67
2021/07/23 11:54:23;;;;;;;10.45;6.25;;;25.00;57.10;;;;;;3560962;40;20073;-66
2021/07/23 11:56:48;;;;;;;8.57;6.15;;;25.00;57.30;;;;;;3562162;40;20531;-67
2021/07/23 11:59:14;;;;;;;9.35;6.20;;;25.00;57.70;;;;;;3561696;40;20029;-67
2021/07/23 12:01:41;;;;;;;10.70;6.18;;;25.00;56.20;;;;;;3560533;40;20040;-67
2021/07/23 12:04:10;;;;;;;8.48;6.90;;;25.00;58.00;;;;;;3561204;40;20478;-67
2021/07/23 12:06:44;;;;;;;10.55;5.60;;;24.90;58.00;;;;;;3561880;40;20121;-67
2021/07/23 12:09:11;;;;;;;9.32;6.00;;;24.90;57.20;;;;;;3562028;40;20026;-67
2021/07/23 12:11:37;;;;;;;7.68;5.40;;;25.00;57.50;;;;;;3561531;40;20037;-67
2021/07/23 12:14:10;;;;;;;10.60;6.28;;;25.10;57.30;;;;;;3561644;40;20022;-67
2021/07/23 12:16:38;;;;;;;10.05;5.82;;;25.20;57.60;;;;;;3561180;40;20048;-67
2021/07/23 12:19:08;;;;;;;6.63;5.60;;;25.30;56.60;;;;;;3561798;40;20054;-66
2021/07/23 12:21:36;;;;;;;7.30;5.70;;;25.30;56.10;;;;;;3561483;40;20189;-66
2021/07/23 12:24:07;;;;;;;6.78;5.65;;;25.30;57.50;;;;;;3560053;40;20038;-66
2021/07/23 12:26:38;;;;;;;9.10;6.00;;;25.30;57.00;;;;;;3560590;40;20471;-66
2021/07/23 12:29:06;;;;;;;9.63;6.28;;;25.20;57.20;;;;;;3561153;40;20025;-66
2021/07/23 12:31:33;;;;;;;12.27;7.55;;;25.30;57.20;;;;;;3562013;40;20045;-66
2021/07/23 12:34:02;;;;;;;14.35;9.05;;;25.30;59.10;;;;;;3561141;40;20026;-66
2021/07/23 12:36:28;;;;;;;16.02;10.70;;;25.30;57.40;;;;;;3560742;40;20123;-66
2021/07/23 12:39:04;;;;;;;10.25;7.22;;;25.40;58.00;;;;;;3562374;40;20372;-68
2021/07/23 12:41:30;;;;;;;13.38;8.63;;;25.40;58.60;;;;;;3561588;40;20048;-67